Time;durP1;ratioP1;P1;durP2;ratioP2;P2;SDS_P1;SDS_P2;PMS_P1;PMS_P2;Temp;Humidity;BMP_temperature;BMP_pressure;BME280_temperature;BME280_humidity;BME280_pressure;Samples;Min_cycle;Max_cycle;Signal;HPM_P1;HPM_P2
2021/08/03 00:04:13;;;;;;;6.15;4.58;;;;;;;15.40;75.03;100227.33;258283;1096;114763;-75
2021/08/03 00:09:18;;;;;;;4.60;4.20;;;;;;;15.34;74.74;100233.42;258584;1096;114767;-74
2021/08/03 00:14:25;;;;;;;4.03;3.60;;;;;;;15.31;74.76;100239.12;259563;1095;114442;-74
2021/08/03 00:19:30;;;;;;;3.88;3.45;;;;;;;15.33;74.57;100245.09;257976;1096;114638;-77
2021/08/03 00:24:34;;;;;;;4.90;3.90;;;;;;;15.20;75.14;100245.75;258952;1095;114356;-75
2021/08/03 00:29:37;;;;;;;4.40;4.00;;;;;;;15.22;74.83;100248.24;258507;1096;114401;-73
2021/08/03 00:34:40;;;;;;;5.23;4.17;;;;;;;15.24;74.95;100243.53;259299;1095;114962;-79
2021/08/03 00:39:42;;;;;;;5.18;4.25;;;;;;;15.27;74.82;100248.50;259116;1096;114622;-74
2021/08/03 00:44:44;;;;;;;5.70;4.40;;;;;;;15.27;74.41;100248.50;260193;1096;114506;-76
2021/08/03 00:49:48;;;;;;;4.38;3.93;;;;;;;15.20;74.81;100253.73;258919;1096;114416;-75
2021/08/03 00:54:54;;;;;;;3.80;3.50;;;;;;;15.15;74.91;100260.64;259237;1095;115320;-75
2021/08/03 00:59:57;;;;;;;4.10;3.78;;;;;;;15.11;74.74;100256.70;258623;1095;114736;-74
2021/08/03 01:05:00;;;;;;;5.43;4.00;;;;;;;15.17;74.37;100258.60;259281;1096;114990;-75
2021/08/03 01:10:11;;;;;;;4.10;3.78;;;;;;;15.17;73.95;100250.62;258949;1095;114774;-75
2021/08/03 01:15:22;;;;;;;4.20;3.63;;;;;;;15.22;73.36;100258.89;258763;1096;114687;-75
2021/08/03 01:20:32;;;;;;;6.70;4.30;;;;;;;15.12;73.68;100255.68;258729;1096;114517;-74
2021/08/03 01:26:27;;;;;;;5.03;3.60;;;;;;;15.00;73.80;100262.49;259728;1096;114487;-73
2021/08/03 01:31:32;;;;;;;7.05;3.65;;;;;;;14.91;73.88;100265.25;258332;1096;114224;-74
2021/08/03 01:36:39;;;;;;;3.65;3.18;;;;;;;15.01;73.10;100258.81;259217;1096;114755;-75
2021/08/03 01:41:53;;;;;;;6.43;5.68;;;;;;;15.00;73.10;100267.81;257921;1096;114461;-73
2021/08/03 01:47:02;;;;;;;4.20;3.70;;;;;;;14.99;72.77;100266.17;258978;1094;114284;-76
2021/08/03 01:52:08;;;;;;;5.18;3.35;;;;;;;14.79;73.90;100273.89;258230;1095;114698;-74
2021/08/03 01:57:14;;;;;;;3.70;3.23;;;;;;;14.81;72.93;100270.02;257765;1096;114449;-73
2021/08/03 02:02:24;;;;;;;4.30;3.33;;;;;;;14.81;72.74;100279.84;258803;1095;114896;-74
2021/08/03 02:07:27;;;;;;;3.70;3.40;;;;;;;14.83;72.68;100286.64;257451;1096;114322;-73
2021/08/03 02:12:33;;;;;;;5.28;4.58;;;;;;;14.69;73.29;100282.13;258746;1096;114764;-75
2021/08/03 02:17:39;;;;;;;3.83;3.40;;;;;;;14.59;73.70;100287.72;258304;1095;114319;-75
2021/08/03 02:22:45;;;;;;;5.60;4.15;;;;;;;14.58;73.52;100288.71;258093;1096;114381;-74
2021/08/03 02:27:53;;;;;;;4.20;3.73;;;;;;;14.55;73.66;100296.22;258922;1096;114433;-75
2021/08/03 02:33:22;;;;;;;4.50;4.10;;;;;;;14.59;73.02;100302.83;259519;1095;114903;-73
2021/08/03 02:38:30;;;;;;;4.03;3.60;;;;;;;14.58;73.03;100303.84;257934;1096;114659;-75
2021/08/03 02:43:48;;;;;;;3.88;3.58;;;;;;;14.45;73.41;100297.28;258604;1096;114580;-73
2021/08/03 02:49:04;;;;;;;3.40;3.10;;;;;;;14.41;73.19;100301.31;258659;1096;114263;-73
2021/08/03 02:54:55;;;;;;;6.18;5.10;;;;;;;14.37;72.85;100308.00;258272;1096;115954;-74
2021/08/03 03:00:00;;;;;;;4.18;3.25;;;;;;;14.34;72.89;100311.01;257541;1098;115093;-73
2021/08/03 03:05:27;;;;;;;3.45;2.78;;;;;;;14.34;72.25;100312.84;258983;1096;115177;-60
2021/08/03 03:10:32;;;;;;;4.03;2.83;;;;;;;14.18;72.56;100321.78;258114;1095;114698;-73
2021/08/03 03:15:35;;;;;;;5.03;3.87;;;;;;;14.16;72.95;100318.49;258363;1096;114612;-73
2021/08/03 03:20:39;;;;;;;4.30;3.05;;;;;;;14.14;72.29;100333.77;258744;1096;114246;-73
2021/08/03 03:25:43;;;;;;;2.60;2.40;;;;;;;14.19;71.54;100339.38;259240;1096;114702;-74
2021/08/03 03:30:50;;;;;;;3.45;2.38;;;;;;;14.15;71.79;100327.45;258212;1096;115446;-72
2021/08/03 03:36:00;;;;;;;4.65;3.83;;;;;;;14.08;72.06;100337.13;257668;1095;114800;-74
2021/08/03 03:41:03;;;;;;;3.83;2.45;;;;;;;13.96;72.60;100339.37;257721;1096;114756;-74
2021/08/03 03:46:15;;;;;;;4.40;2.73;;;;;;;14.04;72.07;100341.14;258024;1095;114730;-73
2021/08/03 03:51:28;;;;;;;6.30;2.78;;;;;;;14.06;71.77;100355.92;256946;1096;114728;-73
2021/08/03 03:56:34;;;;;;;3.63;2.53;;;;;;;13.98;72.34;100358.63;257326;1096;115007;-74
2021/08/03 04:01:37;;;;;;;3.45;2.75;;;;;;;14.01;71.85;100360.13;258236;1096;114620;-74
2021/08/03 04:06:40;;;;;;;5.85;2.48;;;;;;;13.97;72.50;100346.36;257990;1096;115111;-75
2021/08/03 04:11:47;;;;;;;6.78;2.30;;;;;;;14.07;72.01;100362.06;258291;1095;114672;-75
2021/08/03 04:16:50;;;;;;;2.50;2.30;;;;;;;14.12;71.65;100362.34;257731;1094;114534;-74
2021/08/03 04:21:53;;;;;;;2.63;2.43;;;;;;;14.20;71.21;100357.00;257854;1095;114834;-73
2021/08/03 04:26:55;;;;;;;3.10;2.20;;;;;;;14.21;71.18;100356.81;260086;1096;114207;-74
2021/08/03 04:32:01;;;;;;;3.25;2.35;;;;;;;14.20;71.62;100371.11;257772;1096;114749;-74
2021/08/03 04:37:03;;;;;;;3.43;2.73;;;;;;;14.29;71.16;100363.90;257564;1093;114366;-74
2021/08/03 04:42:06;;;;;;;5.70;2.80;;;;;;;14.37;70.99;100379.78;258452;1092;114319;-76
2021/08/03 04:47:08;;;;;;;5.35;2.13;;;;;;;14.37;71.42;100369.16;258672;1093;114202;-77
2021/08/03 04:52:10;;;;;;;4.05;2.50;;;;;;;14.43;71.65;100375.58;257966;1096;114342;-73
2021/08/03 04:57:16;;;;;;;;;;;;;;;14.50;71.27;100370.41;258479;1093;114765;-76
2021/08/03 05:02:22;;;;;;;2.60;2.40;;;;;;;14.63;70.95;100383.95;258914;1093;103031;-76
2021/08/03 05:07:24;;;;;;;5.20;2.20;;;;;;;14.77;70.78;100385.80;258714;1093;114206;-75
2021/08/03 05:12:26;;;;;;;3.57;2.40;;;;;;;14.81;70.62;100392.41;258941;1096;114603;-75
2021/08/03 05:17:31;;;;;;;2.28;1.70;;;;;;;14.84;70.42;100397.38;258586;1093;114518;-75
2021/08/03 05:22:34;;;;;;;4.43;2.00;;;;;;;14.92;69.98;100405.28;258271;1093;114282;-75
2021/08/03 05:27:36;;;;;;;4.38;1.80;;;;;;;15.05;69.00;100409.14;259416;1092;114219;-74
2021/08/03 05:32:38;;;;;;;4.45;2.05;;;;;;;15.20;68.38;100417.98;258513;1096;114341;-74
2021/08/03 05:37:45;;;;;;;3.68;1.90;;;;;;;15.29;68.59;100416.91;259191;1095;114685;-75
2021/08/03 05:42:51;;;;;;;6.08;4.65;;;;;;;15.33;68.29;100410.20;258548;1096;114738;-76
2021/08/03 05:47:55;;;;;;;6.90;3.83;;;;;;;15.47;68.56;100418.36;258292;1096;114918;-72
2021/08/03 05:52:57;;;;;;;6.73;3.40;;;;;;;15.65;67.43;100416.19;258396;1096;115127;-73
2021/08/03 05:57:59;;;;;;;3.73;1.50;;;;;;;15.79;66.97;100412.66;258174;1095;114970;-74
2021/08/03 06:03:01;;;;;;;6.13;2.28;;;;;;;15.84;66.74;100415.60;259180;1095;114259;-74
2021/08/03 06:08:06;;;;;;;1.43;1.25;;;;;;;15.87;66.76;100412.54;257990;1095;114267;-74
2021/08/03 06:13:15;;;;;;;4.48;2.10;;;;;;;15.95;66.14;100422.27;258608;1096;114853;-77
2021/08/03 06:18:32;;;;;;;29.83;15.85;;;;;;;16.11;66.50;100423.88;258052;1096;114347;-75
2021/08/03 06:23:36;;;;;;;6.38;4.15;;;;;;;16.31;65.34;100422.27;258642;1096;114646;-74
2021/08/03 06:28:48;;;;;;;4.50;2.40;;;;;;;16.42;65.04;100434.27;258106;1096;114355;-76
2021/08/03 06:33:54;;;;;;;;;;;;;;;16.46;65.44;100434.70;259122;1096;114237;-73
2021/08/03 06:38:56;;;;;;;2.23;1.45;;;;;;;16.50;63.85;100430.64;259359;1095;103045;-69
2021/08/03 06:44:19;;;;;;;2.48;1.15;;;;;;;16.61;62.46;100430.14;258434;1096;114281;-75
2021/08/03 06:49:23;;;;;;;2.85;1.20;;;;;;;16.72;63.78;100429.63;258522;1096;114796;-75
2021/08/03 06:54:28;;;;;;;1.20;1.05;;;;;;;16.81;61.82;100431.19;258450;1096;114304;-74
2021/08/03 06:59:34;;;;;;;2.95;0.90;;;;;;;16.85;61.93;100427.11;259432;1094;114665;-74
2021/08/03 07:04:45;;;;;;;8.80;7.05;;;;;;;16.96;62.13;100433.75;258360;1095;114290;-73
2021/08/03 07:09:49;;;;;;;14.40;6.45;;;;;;;17.02;62.03;100434.83;258518;1096;114200;-75
2021/08/03 07:14:53;;;;;;;37.30;13.80;;;;;;;17.18;61.93;100439.88;259416;1096;115129;-74
2021/08/03 07:20:01;;;;;;;4.95;2.50;;;;;;;17.25;60.78;100434.59;258587;1096;114953;-71
2021/08/03 07:25:04;;;;;;;2.95;1.40;;;;;;;17.30;61.67;100438.31;259029;1096;114585;-75
2021/08/03 07:30:10;;;;;;;3.73;2.25;;;;;;;17.39;61.68;100441.64;259801;1095;114282;-73
2021/08/03 07:35:14;;;;;;;3.43;2.60;;;;;;;17.55;59.71;100440.50;258497;1096;114280;-77
2021/08/03 07:40:18;;;;;;;;;;;;;;;17.79;57.17;100434.71;259534;1096;114818;-78
2021/08/03 07:45:24;;;;;;;5.38;4.43;;;;;;;17.80;57.76;100433.68;260624;1096;102950;-74
2021/08/03 07:50:27;;;;;;;2.95;1.00;;;;;;;17.83;56.81;100438.64;261245;1095;115046;-75
2021/08/03 07:55:29;;;;;;;3.13;1.50;;;;;;;17.92;57.20;100441.14;260028;1096;114637;-77
2021/08/03 08:00:32;;;;;;;3.63;1.03;;;;;;;17.93;56.38;100440.10;259684;1094;114704;-75
2021/08/03 08:05:35;;;;;;;4.50;2.45;;;;;;;18.04;55.86;100431.50;258763;1095;114756;-74
2021/08/03 08:10:38;;;;;;;6.43;5.35;;;;;;;18.24;54.33;100428.88;258334;1096;114500;-75
2021/08/03 08:15:42;;;;;;;1.95;1.50;;;;;;;18.28;54.36;100430.95;259274;1096;114411;-75
2021/08/03 08:20:48;;;;;;;3.90;3.15;;;;;;;18.41;53.79;100437.34;259659;1095;114344;-76
2021/08/03 08:25:51;;;;;;;2.83;2.25;;;;;;;18.51;53.51;100435.11;259991;1096;114258;-75
2021/08/03 08:30:53;;;;;;;9.20;3.63;;;;;;;18.69;52.65;100429.99;259690;1096;115006;-75
2021/08/03 08:35:55;;;;;;;2.28;1.30;;;;;;;18.58;52.86;100435.95;260723;1095;114386;-79
2021/08/03 08:40:58;;;;;;;1.35;1.08;;;;;;;18.59;53.20;100434.91;259165;1096;114208;-74
2021/08/03 08:46:01;;;;;;;2.18;1.03;;;;;;;18.76;51.82;100436.20;258517;1096;114207;-74
2021/08/03 08:51:05;;;;;;;2.00;1.00;;;;;;;18.96;52.24;100433.53;258561;1094;114774;-75
2021/08/03 08:56:07;;;;;;;2.80;1.03;;;;;;;18.97;51.35;100424.45;259522;1094;114412;-76
2021/08/03 09:01:13;;;;;;;1.70;1.60;;;;;;;18.99;51.43;100425.05;259413;1096;114413;-74
2021/08/03 09:06:21;;;;;;;4.18;3.73;;;;;;;18.78;51.38;100426.10;258623;1096;114643;-74
2021/08/03 09:11:23;;;;;;;6.80;3.15;;;;;;;18.97;51.57;100428.98;258045;1096;114709;-74
2021/08/03 09:16:28;;;;;;;4.38;3.55;;;;;;;19.26;50.33;100428.52;258871;1095;114275;-74
2021/08/03 09:21:30;;;;;;;4.75;2.30;;;;;;;19.38;51.32;100425.20;258429;1096;114278;-76
2021/08/03 09:26:46;;;;;;;3.47;2.80;;;;;;;19.40;50.07;100420.47;258912;1096;114724;-75
2021/08/03 09:31:54;;;;;;;5.77;4.53;;;;;;;19.34;50.24;100425.62;258737;1096;114436;-80
2021/08/03 09:36:58;;;;;;;2.77;1.40;;;;;;;19.50;47.94;100424.38;258813;1095;114644;-74
2021/08/03 09:42:04;;;;;;;1.73;1.45;;;;;;;19.59;46.68;100423.09;258315;1095;114823;-76
2021/08/03 09:47:10;;;;;;;5.15;3.85;;;;;;;19.78;47.48;100432.14;258475;1096;115536;-76
2021/08/03 09:52:18;;;;;;;1.78;1.63;;;;;;;19.80;48.10;100424.69;258313;1096;115041;-75
2021/08/03 09:57:23;;;;;;;4.77;1.73;;;;;;;19.90;46.93;100431.48;258525;1096;114266;-77
2021/08/03 10:02:27;;;;;;;8.83;2.55;;;;;;;20.01;48.04;100437.00;258706;1096;114666;-76
2021/08/03 10:07:32;;;;;;;4.03;2.33;;;;;;;20.06;48.53;100433.66;257940;1095;114674;-75
2021/08/03 10:12:38;;;;;;;2.83;1.80;;;;;;;20.15;46.68;100423.50;259108;1096;114832;-76
2021/08/03 10:17:43;;;;;;;3.28;1.18;;;;;;;20.33;47.64;100433.52;258679;1096;114588;-75
2021/08/03 10:22:58;;;;;;;2.43;1.35;;;;;;;20.52;46.12;100435.28;258613;1095;114530;-75
2021/08/03 10:28:18;;;;;;;2.88;1.30;;;;;;;20.20;48.53;100434.40;258237;1096;114304;-73
2021/08/03 10:33:40;;;;;;;2.98;0.93;;;;;;;20.42;47.90;100433.03;258346;1096;114246;-74
2021/08/03 10:39:08;;;;;;;2.15;1.05;;;;;;;20.65;45.45;100427.13;257956;1095;114813;-75
2021/08/03 10:44:44;;;;;;;2.67;1.40;;;;;;;21.05;47.25;100422.22;259098;1095;114459;-74
2021/08/03 10:49:57;;;;;;;1.50;1.40;;;;;;;21.04;46.65;100430.52;258934;1096;114630;-74
2021/08/03 10:55:03;;;;;;;2.25;1.63;;;;;;;20.35;49.77;100431.42;260435;1095;114110;-74
2021/08/03 11:00:07;;;;;;;2.98;2.03;;;;;;;20.15;48.44;100427.00;259534;1096;113735;-76
2021/08/03 11:05:25;;;;;;;2.65;1.55;;;;;;;20.78;46.94;100420.81;259495;1096;113705;-76
2021/08/03 11:10:28;;;;;;;2.58;1.20;;;;;;;21.20;47.63;100424.57;258545;1096;115089;-74
2021/08/03 11:15:35;;;;;;;1.10;1.00;;;;;;;21.46;47.17;100420.00;259311;1096;113913;-75
2021/08/03 11:20:38;;;;;;;2.18;1.75;;;;;;;21.41;46.56;100422.52;258376;1096;115098;-76
2021/08/03 11:25:46;;;;;;;6.88;3.40;;;;;;;21.28;47.84;100412.70;259275;1095;114995;-62
2021/08/03 11:30:52;;;;;;;7.10;2.83;;;;;;;20.86;48.45;100411.66;260329;1095;114763;-75
2021/08/03 11:35:55;;;;;;;2.00;1.23;;;;;;;20.62;47.58;100395.33;259239;1097;114094;-74
2021/08/03 11:41:00;;;;;;;2.20;2.05;;;;;;;20.49;49.41;100408.86;258546;1096;114217;-74
2021/08/03 11:46:03;;;;;;;2.58;2.23;;;;;;;21.80;47.45;100390.82;260874;1090;114907;-74
2021/08/03 11:51:16;;;;;;;2.88;1.70;;;;;;;21.40;46.95;100407.44;260065;1095;115101;-74
2021/08/03 11:56:30;;;;;;;1.38;1.05;;;;;;;20.46;47.83;100401.20;258734;1096;114302;-76
2021/08/03 12:02:02;;;;;;;2.98;1.88;;;;;;;20.53;49.74;100402.02;259912;1095;114783;-75
2021/08/03 12:07:04;;;;;;;17.80;7.73;;;;;;;21.27;46.17;100398.45;258603;1096;114380;-74
2021/08/03 12:12:14;;;;;;;2.25;1.70;;;;;;;21.90;46.52;100385.73;258903;1096;114543;-74
2021/08/03 12:17:29;;;;;;;3.33;1.73;;;;;;;21.70;47.92;100381.43;258909;1096;115495;-74
2021/08/03 12:22:35;;;;;;;3.13;1.30;;;;;;;21.92;45.35;100364.78;258657;1096;114777;-76
2021/08/03 12:27:42;;;;;;;1.75;1.45;;;;;;;21.94;46.75;100370.77;258755;1095;115260;-78
2021/08/03 12:32:44;;;;;;;2.45;1.80;;;;;;;22.08;48.49;100366.85;258336;1095;114475;-75
2021/08/03 12:37:46;;;;;;;1.58;1.20;;;;;;;22.15;42.43;100351.43;258066;1095;114951;-74
2021/08/03 12:42:53;;;;;;;1.30;1.20;;;;;;;22.17;45.38;100356.60;258733;1096;114278;-75
2021/08/03 12:48:01;;;;;;;1.33;1.05;;;;;;;22.15;44.26;100362.20;258216;1095;114198;-73
2021/08/03 12:53:03;;;;;;;2.25;1.30;;;;;;;22.14;44.35;100352.48;258376;1095;114630;-73
2021/08/03 12:58:05;;;;;;;3.30;2.70;;;;;;;22.00;44.31;100348.34;258866;1096;114317;-74
2021/08/03 13:03:13;;;;;;;1.80;1.38;;;;;;;22.08;44.06;100339.94;258487;1096;114375;-73
2021/08/03 13:08:16;;;;;;;4.90;1.33;;;;;;;22.40;44.81;100336.98;259442;1096;114485;-75
2021/08/03 13:13:18;;;;;;;1.70;1.20;;;;;;;21.98;45.11;100343.17;258446;1095;114316;-74
2021/08/03 13:18:21;;;;;;;4.70;3.83;;;;;;;21.86;45.70;100341.49;258587;1095;114494;-76
2021/08/03 13:23:23;;;;;;;1.40;1.30;;;;;;;21.64;45.41;100341.98;258333;1096;114850;-74
2021/08/03 13:28:30;;;;;;;1.45;1.43;;;;;;;21.70;45.78;100330.32;259182;1095;114190;-74
2021/08/03 13:33:33;;;;;;;2.05;1.50;;;;;;;22.11;44.07;100327.87;259274;1096;114201;-79
2021/08/03 13:38:35;;;;;;;3.48;2.30;;;;;;;22.16;44.71;100330.74;258825;1095;114452;-74
2021/08/03 13:43:38;;;;;;;2.23;1.90;;;;;;;21.77;45.13;100328.36;258898;1096;114499;-74
2021/08/03 13:48:40;;;;;;;2.38;1.30;;;;;;;22.17;43.96;100322.42;258912;1095;114784;-74
2021/08/03 13:53:43;;;;;;;2.23;1.53;;;;;;;22.36;44.17;100314.27;259352;1095;114365;-75
2021/08/03 13:58:45;;;;;;;1.68;1.58;;;;;;;22.10;44.02;100316.28;258961;1096;114536;-76
2021/08/03 14:03:48;;;;;;;4.18;2.45;;;;;;;22.21;42.45;100307.45;258035;1095;114233;-73
2021/08/03 14:08:51;;;;;;;3.80;2.85;;;;;;;22.28;43.07;100306.53;258173;1094;114910;-73
2021/08/03 14:13:56;;;;;;;2.00;1.90;;;;;;;22.03;43.21;100299.41;258705;1096;114741;-78
2021/08/03 14:19:03;;;;;;;3.90;2.18;;;;;;;22.05;42.46;100288.44;258946;1096;114622;-76
2021/08/03 14:24:10;;;;;;;2.15;1.80;;;;;;;22.33;42.36;100282.41;259039;1095;114365;-74
2021/08/03 14:29:13;;;;;;;5.40;2.28;;;;;;;22.29;44.01;100273.16;258810;1095;114694;-76
2021/08/03 14:34:18;;;;;;;2.08;1.20;;;;;;;22.62;42.73;100270.69;258620;1096;114968;-76
2021/08/03 14:39:39;;;;;;;1.38;1.28;;;;;;;22.68;42.79;100283.23;259335;1096;114588;-74
2021/08/03 14:44:41;;;;;;;2.48;1.88;;;;;;;22.28;43.91;100283.12;258506;1096;114198;-75
2021/08/03 14:49:44;;;;;;;1.60;1.50;;;;;;;21.89;44.57;100287.23;258902;1096;114345;-74
2021/08/03 14:54:49;;;;;;;4.45;1.50;;;;;;;22.40;43.95;100283.94;259292;1096;114730;-76
2021/08/03 14:59:53;;;;;;;2.50;1.43;;;;;;;22.20;44.85;100281.59;259275;1096;114601;-77
2021/08/03 15:04:56;;;;;;;1.58;1.35;;;;;;;22.38;43.42;100279.83;258341;1095;114851;-74
2021/08/03 15:10:00;;;;;;;1.48;1.10;;;;;;;22.32;44.76;100273.52;259406;1096;114510;-74
2021/08/03 15:15:03;;;;;;;2.33;1.50;;;;;;;22.09;44.74;100265.39;259826;1096;114333;-76
2021/08/03 15:20:05;;;;;;;1.83;1.63;;;;;;;22.19;44.96;100269.16;258260;1095;114600;-79
2021/08/03 15:25:08;;;;;;;1.33;1.20;;;;;;;22.31;44.64;100266.47;258211;1096;114586;-74
2021/08/03 15:30:11;;;;;;;2.18;1.70;;;;;;;22.21;43.67;100253.61;257599;1096;114524;-73
2021/08/03 15:35:13;;;;;;;2.23;1.23;;;;;;;22.10;44.05;100250.87;257891;1095;114341;-73
2021/08/03 15:40:15;;;;;;;2.58;1.43;;;;;;;22.18;45.05;100239.79;257485;1096;114641;-74
2021/08/03 15:45:17;;;;;;;4.48;4.05;;;;;;;22.07;44.71;100237.87;257669;1096;114597;-74
2021/08/03 15:50:24;;;;;;;2.15;1.90;;;;;;;22.41;43.55;100236.28;257696;1096;114232;-75
2021/08/03 15:55:29;;;;;;;2.08;1.40;;;;;;;22.31;43.19;100230.66;257854;1096;114338;-73
2021/08/03 16:00:32;;;;;;;2.95;1.75;;;;;;;22.41;42.50;100236.28;258117;1096;114569;-74
2021/08/03 16:05:34;;;;;;;5.13;3.50;;;;;;;22.44;44.33;100235.82;257819;1097;114580;-73
2021/08/03 16:10:38;;;;;;;3.00;2.60;;;;;;;22.38;45.02;100247.52;257868;1096;114370;-75
2021/08/03 16:15:40;;;;;;;1.50;1.40;;;;;;;22.23;42.72;100245.28;257069;1096;114900;-74
2021/08/03 16:20:42;;;;;;;2.07;1.80;;;;;;;22.09;43.80;100241.98;257423;1096;115030;-73
2021/08/03 16:25:44;;;;;;;1.70;1.60;;;;;;;22.01;43.98;100245.02;257793;1096;114634;-74
2021/08/03 16:30:51;;;;;;;4.60;4.18;;;;;;;21.95;46.78;100248.62;257735;1095;116393;-75
2021/08/03 16:36:00;;;;;;;2.35;2.03;;;;;;;21.99;46.39;100244.41;257669;1095;114216;-73
2021/08/03 16:41:02;;;;;;;4.65;4.20;;;;;;;21.93;44.62;100250.73;257701;1096;114308;-74
2021/08/03 16:46:05;;;;;;;1.98;1.85;;;;;;;21.87;46.11;100251.64;258154;1096;115069;-74
2021/08/03 16:51:07;;;;;;;1.63;1.53;;;;;;;21.82;45.20;100260.41;257948;1095;114415;-74
2021/08/03 16:56:10;;;;;;;2.55;2.18;;;;;;;21.60;46.81;100256.59;257625;1094;114426;-72
2021/08/03 17:01:20;;;;;;;1.50;1.40;;;;;;;21.48;48.41;100256.55;258311;1096;114716;-75
2021/08/03 17:06:55;;;;;;;2.43;1.50;;;;;;;21.38;49.22;100254.42;258875;1095;114517;-74
2021/08/03 17:12:14;;;;;;;2.60;1.63;;;;;;;21.32;49.49;100255.28;258379;1095;114352;-76
2021/08/03 17:17:41;;;;;;;4.20;1.50;;;;;;;21.23;49.95;100260.16;259077;1096;114734;-69
2021/08/03 17:22:53;;;;;;;3.60;1.13;;;;;;;21.11;50.53;100264.66;258415;1096;114521;-75
2021/08/03 17:32:59;;;;;;;1.83;1.25;;;;;;;20.99;51.51;100261.09;259028;1094;114666;-73
2021/08/03 17:38:02;;;;;;;3.00;2.70;;;;;;;20.93;51.66;100264.66;258869;1096;114218;-75
2021/08/03 17:43:05;;;;;;;1.90;1.70;;;;;;;20.85;52.48;100268.46;257849;1097;114421;-75
2021/08/03 17:48:09;;;;;;;2.30;2.10;;;;;;;20.73;52.95;100263.01;258504;1096;115480;-73
2021/08/03 17:53:16;;;;;;;1.95;1.78;;;;;;;20.70;53.23;100279.56;257280;1095;114299;-72
2021/08/03 17:58:25;;;;;;;2.33;1.80;;;;;;;20.68;53.88;100270.11;258303;1096;114334;-77
2021/08/03 18:03:35;;;;;;;2.05;1.93;;;;;;;20.62;53.82;100266.42;257814;1096;114359;-75
2021/08/03 18:08:38;;;;;;;3.25;2.95;;;;;;;20.52;54.48;100268.81;258168;1097;114645;-74
2021/08/03 18:13:43;;;;;;;3.10;2.43;;;;;;;20.58;54.44;100267.91;258376;1096;115286;-73
2021/08/03 18:18:54;;;;;;;2.63;2.15;;;;;;;20.52;55.11;100266.95;257337;1095;114739;-76
2021/08/03 18:23:56;;;;;;;2.70;2.50;;;;;;;20.39;56.19;100266.20;258044;1096;115084;-73
2021/08/03 18:29:17;;;;;;;2.53;2.33;;;;;;;20.36;55.97;100270.14;258452;1095;114597;-75
2021/08/03 18:34:56;;;;;;;3.08;2.78;;;;;;;20.18;56.27;100270.93;258415;1095;115213;-74
2021/08/03 18:39:59;;;;;;;2.77;2.57;;;;;;;20.10;56.70;100275.75;258977;1096;114404;-75
2021/08/03 18:45:02;;;;;;;4.40;2.85;;;;;;;19.97;57.16;100285.55;260580;1095;114702;-76
2021/08/03 18:50:06;;;;;;;5.00;3.35;;;;;;;19.85;58.36;100291.80;260612;1096;114347;-75
2021/08/03 18:55:09;;;;;;;7.58;5.65;;;;;;;19.77;58.67;100309.79;259833;1096;114371;-74
2021/08/03 19:00:16;;;;;;;5.55;5.15;;;;;;;19.59;60.01;100304.31;258094;1096;114335;-77
2021/08/03 19:05:29;;;;;;;5.93;5.43;;;;;;;19.50;60.38;100306.42;259812;1096;114872;-78
2021/08/03 19:10:34;;;;;;;6.20;5.60;;;;;;;19.52;60.16;100298.16;259523;1095;114397;-73
2021/08/03 19:15:46;;;;;;;5.48;5.08;;;;;;;19.47;60.34;100297.98;256954;1095;115689;-76
2021/08/03 19:20:48;;;;;;;6.58;6.03;;;;;;;19.33;61.35;100310.60;256777;1097;114427;-75
2021/08/03 19:25:51;;;;;;;7.93;6.30;;;;;;;19.25;61.75;100308.98;257117;1096;116243;-76
2021/08/03 19:30:54;;;;;;;7.98;6.03;;;;;;;19.19;61.69;100325.92;256654;1096;115718;-75
2021/08/03 19:35:57;;;;;;;7.25;6.15;;;;;;;19.10;62.35;100322.63;256829;1095;115015;-73
2021/08/03 19:40:59;;;;;;;6.87;6.27;;;;;;;18.97;63.10;100322.67;256655;1096;115622;-76
2021/08/03 19:46:03;;;;;;;7.00;6.40;;;;;;;18.93;63.52;100326.80;256921;1096;114825;-77
2021/08/03 19:51:09;;;;;;;7.85;7.13;;;;;;;18.73;64.18;100331.38;257621;1096;115952;-77
2021/08/03 19:56:15;;;;;;;6.93;6.37;;;;;;;18.68;64.77;100339.16;256445;1096;115230;-74
2021/08/03 20:01:18;;;;;;;7.93;6.20;;;;;;;18.61;65.22;100341.86;256906;1096;114844;-74
2021/08/03 20:06:20;;;;;;;7.95;7.25;;;;;;;18.51;65.97;100344.11;257366;1096;115488;-75
2021/08/03 20:11:23;;;;;;;10.55;7.50;;;;;;;18.52;65.83;100332.37;257190;1096;115404;-73
2021/08/03 20:16:25;;;;;;;7.73;7.03;;;;;;;18.54;65.57;100333.82;257075;1095;115920;-74
2021/08/03 20:21:27;;;;;;;7.38;6.73;;;;;;;18.57;65.62;100330.73;257198;1096;114905;-74
2021/08/03 20:26:36;;;;;;;7.50;6.50;;;;;;;18.59;65.93;100342.05;257370;1096;115706;-75
2021/08/03 20:31:48;;;;;;;7.30;6.60;;;;;;;18.54;66.31;100343.70;257422;1096;114668;-76
2021/08/03 20:36:56;;;;;;;6.83;6.33;;;;;;;18.52;66.32;100340.40;257045;1096;115717;-76
2021/08/03 20:41:58;;;;;;;6.95;6.00;;;;;;;18.40;66.96;100353.57;257029;1095;114250;-75
2021/08/03 20:47:01;;;;;;;6.30;5.80;;;;;;;18.37;67.04;100351.30;256943;1095;115510;-75
2021/08/03 20:52:07;;;;;;;7.18;5.75;;;;;;;18.34;67.31;100349.88;257097;1095;114849;-74
2021/08/03 20:57:13;;;;;;;6.07;5.57;;;;;;;18.21;67.86;100355.20;257189;1096;115216;-75
2021/08/03 21:02:22;;;;;;;6.25;5.65;;;;;;;18.15;68.27;100356.03;257440;1096;114652;-73
2021/08/03 21:07:26;;;;;;;6.88;5.18;;;;;;;18.15;68.19;100348.00;258378;1096;114899;-73
2021/08/03 21:12:28;;;;;;;6.35;5.75;;;;;;;18.21;68.33;100344.50;259163;1096;114747;-73
2021/08/03 21:17:32;;;;;;;6.00;5.40;;;;;;;18.19;68.23;100346.56;258456;1096;114621;-75
2021/08/03 21:22:36;;;;;;;6.00;5.40;;;;;;;18.18;68.46;100344.92;258485;1095;115370;-73
2021/08/03 21:27:43;;;;;;;5.60;5.20;;;;;;;18.18;68.16;100344.08;257754;1095;114313;-75
2021/08/03 21:32:49;;;;;;;5.48;5.05;;;;;;;18.00;69.36;100348.17;258152;1096;114767;-73
2021/08/03 21:37:54;;;;;;;5.10;4.68;;;;;;;18.01;69.20;100343.65;257921;1096;115334;-75
2021/08/03 21:42:58;;;;;;;5.08;4.73;;;;;;;18.01;69.00;100335.63;258133;1096;115060;-74
2021/08/03 21:48:09;;;;;;;6.10;5.53;;;;;;;17.95;69.43;100328.43;257605;1095;114282;-73
2021/08/03 21:53:15;;;;;;;5.75;5.25;;;;;;;17.92;69.32;100334.18;257719;1095;114786;-76
2021/08/03 22:03:29;;;;;;;5.78;5.28;;;;;;;17.90;69.66;100336.22;259818;1094;114372;-78
2021/08/03 22:08:31;;;;;;;5.03;4.68;;;;;;;17.79;70.16;100341.14;259190;1096;114275;-75
2021/08/03 22:13:33;;;;;;;5.25;4.80;;;;;;;17.73;70.47;100344.58;260256;1095;114343;-74
2021/08/03 22:18:40;;;;;;;6.80;5.48;;;;;;;17.75;70.45;100345.25;260765;1096;114214;-75
2021/08/03 22:23:46;;;;;;;5.40;4.90;;;;;;;17.72;70.56;100350.95;259071;1095;114291;-73
2021/08/03 22:28:49;;;;;;;7.45;4.85;;;;;;;17.73;70.53;100341.91;261155;1096;113894;-77
2021/08/03 22:33:51;;;;;;;5.48;4.98;;;;;;;17.86;69.49;100352.69;258706;1096;114838;-74
2021/08/03 22:38:53;;;;;;;5.20;4.80;;;;;;;17.68;70.19;100355.05;259160;1095;114197;-74
2021/08/03 22:43:56;;;;;;;4.90;4.50;;;;;;;17.59;70.48;100350.89;259244;1095;115276;-75
2021/08/03 22:48:58;;;;;;;5.23;4.80;;;;;;;17.69;70.16;100346.00;258603;1096;114345;-74
2021/08/03 22:54:00;;;;;;;5.30;4.10;;;;;;;17.71;70.31;100348.46;258721;1096;114284;-74
2021/08/03 22:59:02;;;;;;;5.23;4.33;;;;;;;17.67;70.39;100353.41;258818;1096;114245;-73
2021/08/03 23:04:05;;;;;;;5.45;4.53;;;;;;;17.59;71.12;100357.09;258899;1096;114262;-75
2021/08/03 23:09:10;;;;;;;5.08;4.68;;;;;;;17.87;70.46;100348.98;258780;1094;114891;-74
2021/08/03 23:14:12;;;;;;;4.88;4.48;;;;;;;17.73;71.11;100341.08;258425;1095;114798;-73
2021/08/03 23:19:17;;;;;;;5.13;4.63;;;;;;;17.81;70.50;100339.08;258060;1096;114557;-76
2021/08/03 23:24:24;;;;;;;5.40;4.73;;;;;;;17.65;71.73;100344.76;259174;1096;114520;-74